createdAt,value
2022-08-23T00:01:00.224Z,3.72
2022-08-23T00:03:47.590Z,3.10
2022-08-23T00:06:35.687Z,3.97
2022-08-23T00:09:25.939Z,4.07
2022-08-23T00:12:18.022Z,3.85
2022-08-23T00:15:07.308Z,3.95
2022-08-23T00:17:55.179Z,3.70
2022-08-23T00:20:42.375Z,3.97
2022-08-23T00:23:29.405Z,4.00
2022-08-23T00:26:17.948Z,3.42
2022-08-23T00:29:06.637Z,4.50
2022-08-23T00:31:54.320Z,3.80
2022-08-23T00:34:41.989Z,4.22
2022-08-23T00:37:31.358Z,3.55
2022-08-23T00:40:20.169Z,3.90
2022-08-23T00:43:25.265Z,3.90
2022-08-23T00:46:41.588Z,3.88
2022-08-23T00:49:28.603Z,4.85
2022-08-23T00:52:22.332Z,3.88
2022-08-23T00:57:56.484Z,4.43
2022-08-23T01:00:43.314Z,4.57
2022-08-23T01:03:38.792Z,4.20
2022-08-23T01:06:36.313Z,4.50
2022-08-23T01:09:23.798Z,4.18
2022-08-23T01:12:19.195Z,4.20
2022-08-23T01:15:25.026Z,4.47
2022-08-23T01:18:14.619Z,3.97
2022-08-23T01:21:06.798Z,4.40
2022-08-23T01:24:03.368Z,4.40
2022-08-23T01:29:37.759Z,4.55
2022-08-23T01:32:25.773Z,4.50
2022-08-23T01:35:14.381Z,4.75
2022-08-23T01:38:01.983Z,4.70
2022-08-23T01:40:51.931Z,5.13
2022-08-23T01:43:39.672Z,4.43
2022-08-23T01:46:28.332Z,4.93
2022-08-23T01:49:17.603Z,5.07
2022-08-23T01:52:05.902Z,4.45
2022-08-23T01:54:53.380Z,4.57
2022-08-23T01:57:47.771Z,4.70
2022-08-23T02:00:39.900Z,4.75
2022-08-23T02:03:29.359Z,5.05
2022-08-23T02:06:17.068Z,4.78
2022-08-23T02:09:06.025Z,4.53
2022-08-23T02:12:06.878Z,4.57
2022-08-23T02:14:56.960Z,4.63
2022-08-23T02:17:47.300Z,4.60
2022-08-23T02:20:35.023Z,4.70
2022-08-23T02:23:25.283Z,4.55
2022-08-23T02:26:13.180Z,4.20
2022-08-23T02:29:06.545Z,5.03
2022-08-23T02:31:55.730Z,5.30
2022-08-23T02:34:44.511Z,4.97
2022-08-23T02:37:39.383Z,4.88
2022-08-23T02:40:26.388Z,5.07
2022-08-23T02:43:13.876Z,4.68
2022-08-23T02:46:01.544Z,4.82
2022-08-23T02:48:51.104Z,5.13
2022-08-23T02:51:39.761Z,4.82
2022-08-23T02:54:27.107Z,4.60
2022-08-23T02:57:13.827Z,5.07
2022-08-23T03:00:01.457Z,4.70
2022-08-23T03:02:52.013Z,5.05
2022-08-23T03:05:41.159Z,5.47
2022-08-23T03:08:27.968Z,5.80
2022-08-23T03:11:18.142Z,5.10
2022-08-23T03:14:07.479Z,5.20
2022-08-23T03:16:57.442Z,4.45
2022-08-23T03:19:45.470Z,5.10
2022-08-23T03:22:34.453Z,4.90
2022-08-23T03:25:21.869Z,5.00
2022-08-23T03:28:21.822Z,5.00
2022-08-23T03:31:10.734Z,5.45
2022-08-23T03:34:07.354Z,5.30
2022-08-23T03:36:54.705Z,5.25
2022-08-23T03:39:43.151Z,4.97
2022-08-23T03:42:31.223Z,5.10
2022-08-23T03:45:22.417Z,4.78
2022-08-23T03:48:10.351Z,5.78
2022-08-23T03:50:57.867Z,5.13
2022-08-23T03:53:46.732Z,5.32
2022-08-23T03:56:38.166Z,5.38
2022-08-23T03:59:25.051Z,5.40
2022-08-23T04:02:12.252Z,5.13
2022-08-23T04:04:59.501Z,5.78
2022-08-23T04:08:11.743Z,5.65
2022-08-23T04:10:58.923Z,5.77
2022-08-23T04:13:47.273Z,5.60
2022-08-23T04:16:37.663Z,5.28
2022-08-23T04:19:25.388Z,5.50
2022-08-23T04:22:21.525Z,5.07
2022-08-23T04:25:32.366Z,5.72
2022-08-23T04:28:17.047Z,5.55
2022-08-23T04:31:06.428Z,5.43
2022-08-23T04:33:54.828Z,6.13
2022-08-23T04:36:47.859Z,5.05
2022-08-23T04:39:55.013Z,5.40
2022-08-23T04:42:42.846Z,6.00
2022-08-23T04:45:32.701Z,5.53
2022-08-23T04:48:21.369Z,5.55
2022-08-23T04:51:10.232Z,5.90
2022-08-23T04:53:58.621Z,6.00
2022-08-23T04:57:05.534Z,5.88
2022-08-23T04:59:55.045Z,6.20
2022-08-23T05:02:42.723Z,5.95
2022-08-23T05:05:32.396Z,6.45
2022-08-23T05:08:20.063Z,6.28
2022-08-23T05:11:09.443Z,6.05
2022-08-23T05:13:57.747Z,7.78
2022-08-23T05:16:44.769Z,6.28
2022-08-23T05:19:31.644Z,7.30
2022-08-23T05:22:21.069Z,7.05
2022-08-23T05:25:49.093Z,7.10
2022-08-23T05:28:48.952Z,6.75
2022-08-23T05:31:38.289Z,7.47
2022-08-23T05:34:25.591Z,7.78
2022-08-23T05:37:16.719Z,7.43
2022-08-23T05:40:05.718Z,7.28
2022-08-23T05:42:59.719Z,6.85
2022-08-23T05:45:47.120Z,8.02
2022-08-23T05:48:36.501Z,7.20
2022-08-23T05:51:28.965Z,6.30
2022-08-23T05:54:16.915Z,6.47
2022-08-23T05:57:10.643Z,7.32
2022-08-23T06:00:00.682Z,5.75
2022-08-23T06:02:49.267Z,5.57
2022-08-23T06:05:42.359Z,6.50
2022-08-23T06:08:35.202Z,6.28
2022-08-23T06:11:24.766Z,6.07
2022-08-23T06:14:14.521Z,5.40
2022-08-23T06:17:03.608Z,5.10
2022-08-23T06:19:50.995Z,5.18
2022-08-23T06:22:45.003Z,5.50
2022-08-23T06:25:32.457Z,5.40
2022-08-23T06:28:30.074Z,5.35
2022-08-23T06:31:40.100Z,5.88
2022-08-23T06:34:33.825Z,5.07
2022-08-23T06:37:40.783Z,5.28
2022-08-23T06:40:48.210Z,4.25
2022-08-23T06:43:55.000Z,5.00
2022-08-23T06:46:43.521Z,4.72
2022-08-23T06:49:30.757Z,3.83
2022-08-23T06:52:18.575Z,3.97
2022-08-23T06:55:14.587Z,3.75
2022-08-23T06:58:13.256Z,4.00
2022-08-23T07:01:44.685Z,3.10
2022-08-23T07:04:41.457Z,3.47
2022-08-23T07:07:48.444Z,3.40
2022-08-23T07:10:35.556Z,2.92
2022-08-23T07:13:22.805Z,3.20
2022-08-23T07:16:10.149Z,3.53
2022-08-23T07:18:57.370Z,3.20
2022-08-23T07:21:45.989Z,2.70
2022-08-23T07:24:35.839Z,2.80
2022-08-23T07:27:24.015Z,2.65
2022-08-23T07:30:18.720Z,2.78
2022-08-23T07:33:07.320Z,2.60
2022-08-23T07:35:58.020Z,2.80
2022-08-23T07:38:47.951Z,2.67
2022-08-23T07:41:38.833Z,2.53
2022-08-23T07:44:27.504Z,3.22
2022-08-23T07:47:15.144Z,2.80
2022-08-23T07:50:02.324Z,2.80
2022-08-23T07:52:52.215Z,2.63
2022-08-23T07:55:42.080Z,2.40
2022-08-23T07:58:50.252Z,2.60
2022-08-23T08:01:52.821Z,2.80
2022-08-23T08:04:39.915Z,2.50
2022-08-23T08:07:27.553Z,2.28
2022-08-23T08:10:20.991Z,2.35
2022-08-23T08:13:11.307Z,2.47
2022-08-23T08:15:58.714Z,2.17
2022-08-23T08:18:49.225Z,2.67
2022-08-23T08:21:56.639Z,2.70
2022-08-23T08:25:03.415Z,2.45
2022-08-23T08:27:50.467Z,2.50
2022-08-23T08:30:39.268Z,2.08
2022-08-23T08:33:30.685Z,1.90
2022-08-23T08:36:36.359Z,2.35
2022-08-23T08:39:30.498Z,2.33
2022-08-23T08:42:34.546Z,2.13
2022-08-23T08:45:27.020Z,2.00
2022-08-23T08:48:23.633Z,1.90
2022-08-23T08:51:21.701Z,2.20
2022-08-23T08:54:14.139Z,2.33
2022-08-23T08:57:07.787Z,2.17
2022-08-23T09:00:07.277Z,2.13
2022-08-23T09:02:59.844Z,2.13
2022-08-23T09:05:56.397Z,2.15
2022-08-23T09:08:58.216Z,2.05
2022-08-23T09:11:56.771Z,2.00
2022-08-23T09:14:57.370Z,2.33
2022-08-23T09:17:50.887Z,2.03
2022-08-23T09:20:40.321Z,1.92
2022-08-23T09:23:35.911Z,2.25
2022-08-23T09:26:30.380Z,2.08
2022-08-23T09:29:24.139Z,2.00
2022-08-23T09:32:30.382Z,2.05
2022-08-23T09:35:20.391Z,2.20
2022-08-23T09:38:20.969Z,1.65
2022-08-23T09:41:20.844Z,1.80
2022-08-23T09:44:16.470Z,2.10
2022-08-23T09:47:08.675Z,2.55
2022-08-23T09:50:10.864Z,1.90
2022-08-23T09:53:04.463Z,1.63
2022-08-23T09:55:56.433Z,2.05
2022-08-23T09:58:51.199Z,1.58
2022-08-23T10:01:52.043Z,1.83
2022-08-23T10:04:46.189Z,1.83
2022-08-23T10:07:40.310Z,1.70
2022-08-23T10:10:37.802Z,1.80
2022-08-23T10:13:27.825Z,1.88
2022-08-23T10:16:29.189Z,2.30
2022-08-23T10:19:31.107Z,2.78
2022-08-23T10:22:23.267Z,2.38
2022-08-23T10:25:34.696Z,2.30
2022-08-23T10:28:49.894Z,2.10
2022-08-23T10:31:46.943Z,2.08
2022-08-23T10:34:50.851Z,1.90
2022-08-23T10:37:53.572Z,2.10
2022-08-23T10:40:52.167Z,1.80
2022-08-23T10:43:46.534Z,2.00
2022-08-23T10:46:46.459Z,1.88
2022-08-23T10:49:37.877Z,1.95
2022-08-23T10:52:31.226Z,1.80
2022-08-23T10:55:36.875Z,1.60
2022-08-23T10:58:29.236Z,1.60
2022-08-23T11:01:22.901Z,1.40
2022-08-23T11:04:26.513Z,1.50
2022-08-23T11:07:37.337Z,1.98
2022-08-23T11:10:56.134Z,1.52
2022-08-23T11:13:55.042Z,1.70
2022-08-23T11:16:48.791Z,1.83
2022-08-23T11:19:53.737Z,1.40
2022-08-23T11:23:13.041Z,1.50
2022-08-23T11:26:00.525Z,1.55
2022-08-23T11:28:47.982Z,1.55
2022-08-23T11:31:39.800Z,1.65
2022-08-23T11:34:32.116Z,1.60
2022-08-23T11:37:49.271Z,1.48
2022-08-23T11:40:59.950Z,1.20
2022-08-23T11:44:23.011Z,1.40
2022-08-23T11:47:12.548Z,0.75
2022-08-23T11:50:19.400Z,1.30
2022-08-23T11:53:31.789Z,1.45
2022-08-23T11:56:34.113Z,1.20
2022-08-23T11:59:41.656Z,1.33
2022-08-23T12:02:37.233Z,1.60
2022-08-23T12:05:42.322Z,1.67
2022-08-23T12:08:46.756Z,1.10
2022-08-23T12:12:03.563Z,1.20
2022-08-23T12:14:50.796Z,1.48
2022-08-23T12:17:58.510Z,1.40
2022-08-23T12:20:48.326Z,1.60
2022-08-23T12:23:49.038Z,1.63
2022-08-23T12:26:46.682Z,1.55
2022-08-23T12:29:48.501Z,1.20
2022-08-23T12:32:44.315Z,1.40
2022-08-23T12:35:40.384Z,1.15
2022-08-23T12:38:47.072Z,1.20
2022-08-23T12:41:51.362Z,1.40
2022-08-23T12:44:38.740Z,1.10
2022-08-23T12:47:26.412Z,1.38
2022-08-23T12:50:26.103Z,1.30
2022-08-23T12:53:30.015Z,1.73
2022-08-23T12:56:22.809Z,1.33
2022-08-23T12:59:37.625Z,1.60
2022-08-23T13:02:27.795Z,1.30
2022-08-23T13:05:23.877Z,1.30
2022-08-23T13:08:15.016Z,1.50
2022-08-23T13:11:07.659Z,1.90
2022-08-23T13:16:46.952Z,1.70
2022-08-23T13:19:34.872Z,1.40
2022-08-23T13:22:25.122Z,1.50
2022-08-23T13:25:29.228Z,1.13
2022-08-23T13:28:24.212Z,1.60
2022-08-23T13:33:59.466Z,1.20
2022-08-23T13:36:49.115Z,1.05
2022-08-23T13:39:39.625Z,1.10
2022-08-23T13:42:32.260Z,1.20
2022-08-23T13:45:22.898Z,1.35
2022-08-23T13:48:14.096Z,1.40
2022-08-23T13:51:21.875Z,1.20
2022-08-23T13:54:08.551Z,1.30
2022-08-23T13:57:00.478Z,1.70
2022-08-23T13:59:52.848Z,1.33
2022-08-23T14:02:40.795Z,1.40
2022-08-23T14:05:27.873Z,1.60
2022-08-23T14:08:21.623Z,1.40
2022-08-23T14:11:10.663Z,1.27
2022-08-23T14:13:57.577Z,1.30
2022-08-23T14:16:44.723Z,1.10
2022-08-23T14:22:40.716Z,1.58
2022-08-23T14:25:29.916Z,1.20
2022-08-23T14:28:18.782Z,1.55
2022-08-23T14:31:05.882Z,1.35
2022-08-23T14:33:55.272Z,1.38
2022-08-23T14:38:00.308Z,1.10
2022-08-23T14:39:52.613Z,1.23
2022-08-23T14:42:40.996Z,1.10
2022-08-23T14:45:27.846Z,1.08
2022-08-23T14:48:15.051Z,1.40
2022-08-23T14:51:02.442Z,1.00
2022-08-23T14:53:49.503Z,1.30
2022-08-23T14:56:36.714Z,1.20
2022-08-23T14:59:26.339Z,1.20
2022-08-23T15:02:20.399Z,1.20
2022-08-23T15:05:09.017Z,1.00
2022-08-23T15:07:56.170Z,1.13
2022-08-23T15:11:33.198Z,1.20
2022-08-23T15:13:55.321Z,1.25
2022-08-23T15:16:44.695Z,1.45
2022-08-23T15:19:31.864Z,1.08
2022-08-23T15:22:21.747Z,1.17
2022-08-23T15:25:10.212Z,1.50
2022-08-23T15:27:57.660Z,1.10
2022-08-23T15:30:47.040Z,1.10
2022-08-23T15:33:35.591Z,1.25
2022-08-23T15:36:22.885Z,1.05
2022-08-23T15:39:11.410Z,1.30
2022-08-23T15:41:58.656Z,1.48
2022-08-23T15:44:45.515Z,1.30
2022-08-23T15:47:37.981Z,1.05
2022-08-23T15:50:31.342Z,1.38
2022-08-23T15:56:11.130Z,0.80
2022-08-23T15:58:58.548Z,1.30
2022-08-23T16:01:46.083Z,1.45
2022-08-23T16:04:35.994Z,1.20
2022-08-23T16:07:24.802Z,1.70
2022-08-23T16:10:14.512Z,1.30
2022-08-23T16:13:01.776Z,1.20
2022-08-23T16:15:49.232Z,1.10
2022-08-23T16:18:36.069Z,1.30
2022-08-23T16:21:25.263Z,1.27
2022-08-23T16:24:14.281Z,1.40
2022-08-23T16:27:01.231Z,1.30
2022-08-23T16:29:48.486Z,1.40
2022-08-23T16:32:35.890Z,1.27
2022-08-23T16:35:22.959Z,1.60
2022-08-23T16:38:12.772Z,1.60
2022-08-23T16:41:01.624Z,1.85
2022-08-23T16:43:49.040Z,1.70
2022-08-23T16:46:36.452Z,1.50
2022-08-23T16:49:23.410Z,2.17
2022-08-23T16:52:11.912Z,1.50
2022-08-23T16:54:59.277Z,1.42
2022-08-23T16:57:48.215Z,1.45
2022-08-23T17:00:36.572Z,1.40
2022-08-23T17:03:27.196Z,1.80
2022-08-23T17:06:15.168Z,2.00
2022-08-23T17:09:02.982Z,1.50
2022-08-23T17:11:52.374Z,1.50
2022-08-23T17:14:41.262Z,1.80
2022-08-23T17:17:28.358Z,1.52
2022-08-23T17:20:17.242Z,2.05
2022-08-23T17:23:05.952Z,1.60
2022-08-23T17:25:53.422Z,1.48
2022-08-23T17:28:40.374Z,1.60
2022-08-23T17:31:29.225Z,1.38
2022-08-23T17:34:16.507Z,1.85
2022-08-23T17:37:03.558Z,1.73
2022-08-23T17:39:51.329Z,1.77
2022-08-23T17:42:40.956Z,1.67
2022-08-23T17:45:28.991Z,2.30
2022-08-23T17:48:19.509Z,1.70
2022-08-23T17:51:06.521Z,2.30
2022-08-23T17:53:53.633Z,2.53
2022-08-23T17:56:40.559Z,2.13
2022-08-23T17:59:28.810Z,1.80
2022-08-23T18:02:16.511Z,2.03
2022-08-23T18:05:05.458Z,1.80
2022-08-23T18:07:52.943Z,2.17
2022-08-23T18:10:40.268Z,2.03
2022-08-23T18:13:27.307Z,1.92
2022-08-23T18:16:14.532Z,2.60
2022-08-23T18:19:03.387Z,2.28
2022-08-23T18:21:51.578Z,1.80
2022-08-23T18:24:38.817Z,2.10
2022-08-23T18:27:39.561Z,2.50
2022-08-23T18:30:25.742Z,2.17
2022-08-23T18:33:12.661Z,2.97
2022-08-23T18:36:00.093Z,3.75
2022-08-23T18:38:48.672Z,3.95
2022-08-23T18:41:35.715Z,3.00
2022-08-23T18:44:23.200Z,3.38
2022-08-23T18:47:10.468Z,3.35
2022-08-23T18:49:57.677Z,2.75
2022-08-23T18:52:45.197Z,3.17
2022-08-23T18:55:33.987Z,3.10
2022-08-23T18:58:22.908Z,3.17
2022-08-23T19:01:22.530Z,3.28
2022-08-23T19:04:11.201Z,3.67
2022-08-23T19:06:58.505Z,3.30
2022-08-23T19:09:46.023Z,3.20
2022-08-23T19:12:34.690Z,3.75
2022-08-23T19:15:24.880Z,3.75
2022-08-23T19:18:16.015Z,3.55
2022-08-23T19:21:04.926Z,4.40
2022-08-23T19:23:54.200Z,3.80
2022-08-23T19:26:44.457Z,3.85
2022-08-23T19:29:33.180Z,3.78
2022-08-23T19:32:20.134Z,4.20
2022-08-23T19:35:09.407Z,3.78
2022-08-23T19:37:56.491Z,4.25
2022-08-23T19:40:44.210Z,3.63
2022-08-23T19:43:31.590Z,4.55
2022-08-23T19:46:20.354Z,5.10
2022-08-23T19:49:07.347Z,5.18
2022-08-23T19:51:54.343Z,5.38
2022-08-23T19:54:42.062Z,5.13
2022-08-23T19:57:32.956Z,5.47
2022-08-23T20:00:20.078Z,5.30
2022-08-23T20:03:08.542Z,5.60
2022-08-23T20:05:55.796Z,5.20
2022-08-23T20:08:42.781Z,6.03
2022-08-23T20:11:29.671Z,5.90
2022-08-23T20:14:16.969Z,5.72
2022-08-23T20:17:07.289Z,5.82
2022-08-23T20:19:55.801Z,5.43
2022-08-23T20:22:56.796Z,6.57
2022-08-23T20:25:42.912Z,6.25
2022-08-23T20:28:28.735Z,6.90
2022-08-23T20:31:17.571Z,7.05
2022-08-23T20:34:06.565Z,6.78
2022-08-23T20:36:56.149Z,6.63
2022-08-23T20:39:43.611Z,7.32
2022-08-23T20:42:30.736Z,6.95
2022-08-23T20:45:17.827Z,7.38
2022-08-23T20:48:05.166Z,7.30
2022-08-23T20:53:48.727Z,8.23
2022-08-23T20:56:37.051Z,9.25
2022-08-23T20:59:23.901Z,9.95
2022-08-23T21:02:11.020Z,9.48
2022-08-23T21:04:57.850Z,9.25
2022-08-23T21:07:44.956Z,8.05
2022-08-23T21:10:33.840Z,8.30
2022-08-23T21:13:20.674Z,7.40
2022-08-23T21:16:09.418Z,7.40
2022-08-23T21:18:56.917Z,7.22
2022-08-23T21:21:44.523Z,7.13
2022-08-23T21:24:32.264Z,7.30
2022-08-23T21:27:20.934Z,8.02
2022-08-23T21:30:10.420Z,7.90
2022-08-23T21:32:57.297Z,8.32
2022-08-23T21:35:44.361Z,7.75
2022-08-23T21:38:31.898Z,8.82
2022-08-23T21:41:36.162Z,8.00
2022-08-23T21:44:25.291Z,7.40
2022-08-23T21:47:12.490Z,7.75
2022-08-23T21:49:59.556Z,7.80
2022-08-23T21:52:54.629Z,7.13
2022-08-23T21:55:44.405Z,7.10
2022-08-23T21:58:32.905Z,6.43
2022-08-23T22:01:21.376Z,7.05
2022-08-23T22:04:10.226Z,6.80
2022-08-23T22:07:00.841Z,6.40
2022-08-23T22:09:48.650Z,6.43
2022-08-23T22:12:35.398Z,6.07
2022-08-23T22:15:22.359Z,6.15
2022-08-23T22:18:11.119Z,6.20
2022-08-23T22:20:59.401Z,4.90
2022-08-23T22:23:46.520Z,5.13
2022-08-23T22:26:33.760Z,4.90
2022-08-23T22:29:21.161Z,4.78
2022-08-23T22:32:08.744Z,4.90
2022-08-23T22:34:58.075Z,4.45
2022-08-23T22:38:03.628Z,4.53
2022-08-23T22:40:53.875Z,4.40
2022-08-23T22:43:41.107Z,4.28
2022-08-23T22:46:29.407Z,4.15
2022-08-23T22:49:19.696Z,4.07
2022-08-23T22:52:08.604Z,4.03
2022-08-23T22:54:55.716Z,3.88
2022-08-23T22:57:43.091Z,4.40
2022-08-23T23:00:30.238Z,4.05
2022-08-23T23:03:18.748Z,4.35
2022-08-23T23:06:05.701Z,3.85
2022-08-23T23:08:54.892Z,3.97
2022-08-23T23:11:43.188Z,3.47
2022-08-23T23:14:30.003Z,3.80
2022-08-23T23:17:17.221Z,4.40
2022-08-23T23:20:19.075Z,3.90
2022-08-23T23:23:05.134Z,4.00
2022-08-23T23:25:52.355Z,3.65
2022-08-23T23:28:39.575Z,3.50
2022-08-23T23:31:27.011Z,4.30
2022-08-23T23:34:14.268Z,4.32
2022-08-23T23:37:01.259Z,4.30
2022-08-23T23:39:49.936Z,3.83
2022-08-23T23:42:39.056Z,3.88
2022-08-23T23:45:26.018Z,3.97
2022-08-23T23:48:12.919Z,4.47
2022-08-23T23:50:59.770Z,4.28
2022-08-23T23:53:47.509Z,4.63
2022-08-23T23:56:34.434Z,4.15
2022-08-23T23:59:22.700Z,4.63
